Chemroad Wing — 3EAB8 — position and weather

sailwx.info

Track history (hours):
 
Tides and Currents Weather Stations Pressure Air Temp Water Temp Dewpoint Dewpoint Depression Visibility Wind Speed Wind Dir Waves Ship Positions

Chemroad Wing

Last reported at 2017-May-25 21:11 UTC. Time now 2017-Jun-29 03:54 UTC.
Position N 28°55' E 032°50'.
Warning: this ship's position is 34 days out of date.

Length 170 m; draft 11.9 m.

Type: Ship (hazmat cat C). MMSI: 357740000.

Date/timePositionNaut miles runAvg speedWind from/ knotsBaromVisibWave heightAir tempDewpointWater temp
2017-May-25 21:11N 28°55' E 032°50'150 5.3
2017-May-24 16:57N 31°23' E 032°17'6 7.5
2017-May-24 16:09N 31°29' E 032°16'  
2017-May-21 16:42N 36°04' E 014°47'313.9
2017-May-21 16:30N 36°05' E 014°44'713.9
2017-May-21 16:00N 36°08' E 014°36'713.8
2017-May-21 15:30N 36°10' E 014°28'713.8
2017-May-21 15:00N 36°13' E 014°20'1413.9
2017-May-21 14:00N 36°18' E 014°04'713.8
2017-May-21 13:30N 36°20' E 013°56'713.6
2017-May-21 13:00N 36°23' E 013°48'713.5
2017-May-21 12:30N 36°26' E 013°41'713.6
2017-May-21 12:00N 36°29' E 013°33'47713.3
2017-May-20 00:01N 37°10' E 003°39'113.4
2017-May-19 23:58N 37°10' E 003°39'2313.2
2017-May-19 22:16N 37°06' E 003°11'613.2
2017-May-19 21:51N 37°05' E 003°04'513.2
2017-May-19 21:30N 37°05' E 002°58'39813.3
2017-May-18 15:35N 36°02' W 005°11'115.6
2017-May-18 15:30N 36°02' W 005°13'714.0
2017-May-18 15:00N 36°05' W 005°21'3 3.3
2017-May-18 14:00N 36°06' W 005°25'0 0.0
2017-May-18 13:16N 36°06' W 005°25'0 0.1
2017-May-18 12:58N 36°06' W 005°25'0 0.1
2017-May-18 12:22N 36°06' W 005°25'0 0.1
2017-May-18 11:58N 36°06' W 005°25'0 0.0
2017-May-18 11:28N 36°06' W 005°25'0 0.0
2017-May-18 10:58N 36°06' W 005°25'0 0.3
2017-May-18 10:28N 36°06' W 005°25'0 0.1
2017-May-18 09:52N 36°06' W 005°25'0 0.0
2017-May-18 09:28N 36°06' W 005°25'0 0.1
2017-May-18 08:58N 36°06' W 005°25'0 0.0
2017-May-18 08:28N 36°06' W 005°25'0 0.0
2017-May-18 07:58N 36°06' W 005°25'0 0.1
2017-May-18 07:22N 36°06' W 005°25'0 0.2
2017-May-18 06:49N 36°06' W 005°25'0 0.4
2017-May-18 06:27N 36°06' W 005°25'3 7.6
2017-May-18 06:00N 36°03' W 005°23'510.2
2017-May-18 05:30N 35°58' W 005°24'713.4
2017-May-18 04:58N 35°56' W 005°32'612.2
2017-May-18 04:30N 35°55' W 005°39'611.3
2017-May-18 04:01N 35°54' W 005°46'711.4
2017-May-18 03:26N 35°53' W 005°54'21011.7
2017-May-17 09:31N 33°43' W 009°15'112.2
2017-May-17 09:29N 33°42' W 009°14'1612.1
2017-May-17 08:08N 33°28' W 009°04'112.1
2017-May-17 08:00N 33°27' W 009°03'2811.4
2017-May-17 05:31N 33°07' W 008°39'0 9.0
2017-May-17 05:30N 33°07' W 008°39'  
Track history (hours):
 
Tides and Currents Weather Stations Pressure Air Temp Water Temp Dewpoint Dewpoint Depression Visibility Wind Speed Wind Dir Waves Ship Positions

Chemroad Wing

Last reported at 2017-May-25 21:11 UTC. Time now 2017-Jun-29 03:54 UTC.
Position N 28°55' E 032°50'.
Warning: this ship's position is 34 days out of date.

Length 170 m; draft 11.9 m.

Type: Ship (hazmat cat C). MMSI: 357740000.

Date/timePositionNaut miles runAvg speedWind from/ knotsBaromVisibWave heightAir tempDewpointWater temp
2017-May-25 21:11N 28°55' E 032°50'150 5.3
2017-May-24 16:57N 31°23' E 032°17'6 7.5
2017-May-24 16:09N 31°29' E 032°16'  
2017-May-21 16:42N 36°04' E 014°47'313.9
2017-May-21 16:30N 36°05' E 014°44'713.9
2017-May-21 16:00N 36°08' E 014°36'713.8
2017-May-21 15:30N 36°10' E 014°28'713.8
2017-May-21 15:00N 36°13' E 014°20'1413.9
2017-May-21 14:00N 36°18' E 014°04'713.8
2017-May-21 13:30N 36°20' E 013°56'713.6
2017-May-21 13:00N 36°23' E 013°48'713.5
2017-May-21 12:30N 36°26' E 013°41'713.6
2017-May-21 12:00N 36°29' E 013°33'47713.3
2017-May-20 00:01N 37°10' E 003°39'113.4
2017-May-19 23:58N 37°10' E 003°39'2313.2
2017-May-19 22:16N 37°06' E 003°11'613.2
2017-May-19 21:51N 37°05' E 003°04'513.2
2017-May-19 21:30N 37°05' E 002°58'39813.3
2017-May-18 15:35N 36°02' W 005°11'115.6
2017-May-18 15:30N 36°02' W 005°13'714.0
2017-May-18 15:00N 36°05' W 005°21'3 3.3
2017-May-18 14:00N 36°06' W 005°25'0 0.0
2017-May-18 13:16N 36°06' W 005°25'0 0.1
2017-May-18 12:58N 36°06' W 005°25'0 0.1
2017-May-18 12:22N 36°06' W 005°25'0 0.1
2017-May-18 11:58N 36°06' W 005°25'0 0.0
2017-May-18 11:28N 36°06' W 005°25'0 0.0
2017-May-18 10:58N 36°06' W 005°25'0 0.3
2017-May-18 10:28N 36°06' W 005°25'0 0.1
2017-May-18 09:52N 36°06' W 005°25'0 0.0
2017-May-18 09:28N 36°06' W 005°25'0 0.1
2017-May-18 08:58N 36°06' W 005°25'0 0.0
2017-May-18 08:28N 36°06' W 005°25'0 0.0
2017-May-18 07:58N 36°06' W 005°25'0 0.1
2017-May-18 07:22N 36°06' W 005°25'0 0.2
2017-May-18 06:49N 36°06' W 005°25'0 0.4
2017-May-18 06:27N 36°06' W 005°25'3 7.6
2017-May-18 06:00N 36°03' W 005°23'510.2
2017-May-18 05:30N 35°58' W 005°24'713.4
2017-May-18 04:58N 35°56' W 005°32'612.2
2017-May-18 04:30N 35°55' W 005°39'611.3
2017-May-18 04:01N 35°54' W 005°46'711.4
2017-May-18 03:26N 35°53' W 005°54'21011.7
2017-May-17 09:31N 33°43' W 009°15'112.2
2017-May-17 09:29N 33°42' W 009°14'1612.1
2017-May-17 08:08N 33°28' W 009°04'112.1
2017-May-17 08:00N 33°27' W 009°03'2811.4
2017-May-17 05:31N 33°07' W 008°39'0 9.0
2017-May-17 05:30N 33°07' W 008°39'  

Dump ship's entire track history